createdAt,value
2023-05-05T00:00:00.414Z,12.15
2023-05-05T00:02:28.462Z,12.09
2023-05-05T00:04:56.510Z,12.07
2023-05-05T00:07:24.388Z,12.06
2023-05-05T00:09:52.240Z,12.15
2023-05-05T00:12:21.704Z,12.10
2023-05-05T00:14:49.984Z,12.05
2023-05-05T00:17:18.187Z,11.95
2023-05-05T00:19:46.324Z,11.89
2023-05-05T00:22:14.234Z,11.87
2023-05-05T00:24:42.190Z,11.88
2023-05-05T00:27:10.222Z,11.93
2023-05-05T00:29:39.459Z,11.85
2023-05-05T00:32:07.426Z,11.93
2023-05-05T00:34:35.348Z,11.88
2023-05-05T00:37:04.071Z,11.90
2023-05-05T00:39:33.262Z,11.92
2023-05-05T00:42:01.230Z,11.79
2023-05-05T00:44:39.287Z,11.70
2023-05-05T00:47:10.012Z,11.72
2023-05-05T00:49:39.412Z,11.69
2023-05-05T00:52:07.789Z,11.66
2023-05-05T00:54:36.497Z,11.57
2023-05-05T00:57:04.712Z,11.55
2023-05-05T00:59:34.743Z,11.45
2023-05-05T01:02:02.801Z,11.38
2023-05-05T01:04:32.105Z,11.46
2023-05-05T01:07:09.042Z,11.38
2023-05-05T01:09:43.226Z,11.35
2023-05-05T01:12:21.900Z,11.34
2023-05-05T01:14:58.678Z,11.27
2023-05-05T01:17:40.430Z,11.29
2023-05-05T01:20:20.858Z,11.28
2023-05-05T01:22:55.010Z,11.30
2023-05-05T01:25:42.723Z,11.27
2023-05-05T01:28:29.216Z,11.27
2023-05-05T01:31:23.073Z,11.31
2023-05-05T01:33:59.388Z,11.32
2023-05-05T01:36:33.882Z,11.29
2023-05-05T01:39:04.029Z,11.29
2023-05-05T01:41:38.181Z,11.31
2023-05-05T01:44:08.522Z,11.39
2023-05-05T01:46:37.769Z,11.25
2023-05-05T01:49:09.996Z,11.21
2023-05-05T01:51:40.683Z,11.23
2023-05-05T01:54:10.442Z,11.30
2023-05-05T01:56:41.251Z,11.33
2023-05-05T01:59:10.703Z,11.32
2023-05-05T02:01:44.720Z,11.27
2023-05-05T02:04:16.246Z,11.29
2023-05-05T02:06:45.636Z,11.31
2023-05-05T02:09:15.277Z,11.37
2023-05-05T02:11:43.877Z,11.33
2023-05-05T02:14:13.002Z,11.33
2023-05-05T02:16:42.433Z,11.28
2023-05-05T02:19:10.686Z,11.23
2023-05-05T02:21:40.375Z,11.22
2023-05-05T02:24:09.036Z,11.13
2023-05-05T02:26:40.390Z,11.20
2023-05-05T02:29:10.648Z,11.13
2023-05-05T02:31:44.822Z,11.13
2023-05-05T02:34:14.618Z,11.06
2023-05-05T02:36:45.788Z,10.90
2023-05-05T02:39:22.554Z,11.04
2023-05-05T02:41:53.743Z,11.06
2023-05-05T02:44:25.772Z,11.01
2023-05-05T02:46:55.353Z,10.83
2023-05-05T02:49:23.317Z,10.86
2023-05-05T02:51:52.668Z,10.76
2023-05-05T02:54:20.804Z,10.81
2023-05-05T02:56:51.005Z,10.81
2023-05-05T02:59:28.013Z,10.81
2023-05-05T03:02:04.468Z,10.80
2023-05-05T03:04:39.547Z,10.78
2023-05-05T03:07:14.385Z,10.66
2023-05-05T03:09:48.031Z,10.70
2023-05-05T03:12:21.800Z,10.73
2023-05-05T03:14:53.536Z,10.76
2023-05-05T03:17:22.733Z,10.67
2023-05-05T03:19:51.899Z,10.65
2023-05-05T03:22:21.453Z,10.71
2023-05-05T03:24:51.627Z,10.59
2023-05-05T03:27:20.424Z,10.52
2023-05-05T03:29:48.374Z,10.62
2023-05-05T03:32:17.743Z,10.60
2023-05-05T03:34:45.642Z,10.61
2023-05-05T03:37:13.726Z,10.53
2023-05-05T03:39:43.064Z,10.54
2023-05-05T03:42:10.971Z,10.64
2023-05-05T03:44:38.882Z,10.63
2023-05-05T03:47:07.042Z,10.54
2023-05-05T03:49:35.005Z,10.58
2023-05-05T03:52:03.133Z,10.53
2023-05-05T03:54:31.277Z,10.60
2023-05-05T03:57:00.587Z,10.63
2023-05-05T03:59:28.938Z,10.54
2023-05-05T04:01:56.914Z,10.61
2023-05-05T04:04:24.981Z,10.56
2023-05-05T04:06:52.917Z,10.47
2023-05-05T04:09:20.822Z,10.51
2023-05-05T04:11:48.755Z,10.52
2023-05-05T04:14:18.218Z,10.55
2023-05-05T04:16:46.102Z,10.65
2023-05-05T04:19:14.220Z,10.64
2023-05-05T04:21:42.479Z,10.66
2023-05-05T04:24:10.372Z,10.63
2023-05-05T04:26:38.197Z,10.65
2023-05-05T04:29:06.095Z,10.74
2023-05-05T04:31:35.388Z,10.83
2023-05-05T04:34:03.467Z,10.98
2023-05-05T04:36:32.463Z,10.93
2023-05-05T04:39:00.415Z,10.75
2023-05-05T04:41:30.100Z,10.70
2023-05-05T04:43:58.307Z,10.80
2023-05-05T04:46:26.456Z,10.77
2023-05-05T04:48:55.771Z,10.76
2023-05-05T04:51:23.708Z,10.77
2023-05-05T04:53:51.962Z,10.80
2023-05-05T04:56:19.849Z,10.81
2023-05-05T04:58:47.871Z,10.91
2023-05-05T05:01:15.837Z,10.91
2023-05-05T05:03:44.009Z,10.90
2023-05-05T05:06:13.372Z,10.80
2023-05-05T05:08:41.279Z,10.97
2023-05-05T05:11:09.354Z,11.01
2023-05-05T05:13:37.357Z,11.07
2023-05-05T05:16:05.601Z,11.12
2023-05-05T05:18:33.690Z,11.06
2023-05-05T05:21:01.585Z,11.14
2023-05-05T05:23:33.320Z,11.15
2023-05-05T05:26:01.317Z,11.23
2023-05-05T05:28:29.361Z,11.42
2023-05-05T05:30:57.227Z,11.29
2023-05-05T05:33:25.239Z,11.38
2023-05-05T05:35:53.111Z,11.45
2023-05-05T05:38:21.018Z,11.30
2023-05-05T05:40:50.659Z,11.19
2023-05-05T05:43:18.498Z,11.28
2023-05-05T05:45:46.442Z,11.24
2023-05-05T05:48:14.338Z,11.34
2023-05-05T05:50:42.439Z,11.32
2023-05-05T05:53:10.347Z,11.35
2023-05-05T05:55:38.306Z,11.35
2023-05-05T05:58:07.656Z,11.38
2023-05-05T06:00:35.534Z,11.34
2023-05-05T06:03:03.531Z,11.47
2023-05-05T06:05:32.322Z,11.53
2023-05-05T06:08:00.182Z,11.59
2023-05-05T06:10:28.618Z,11.71
2023-05-05T06:12:56.660Z,11.87
2023-05-05T06:15:26.468Z,11.77
2023-05-05T06:17:54.604Z,11.77
2023-05-05T06:20:22.518Z,12.02
2023-05-05T06:22:50.394Z,12.40
2023-05-05T06:25:18.636Z,12.68
2023-05-05T06:27:46.545Z,12.78
2023-05-05T06:30:15.745Z,12.74
2023-05-05T06:32:45.263Z,12.55
2023-05-05T06:35:13.286Z,12.48
2023-05-05T06:37:41.223Z,12.37
2023-05-05T06:40:10.709Z,12.34
2023-05-05T06:42:38.746Z,12.43
2023-05-05T06:45:07.672Z,12.74
2023-05-05T06:47:36.253Z,14.10
2023-05-05T06:50:06.389Z,15.53
2023-05-05T06:52:34.480Z,16.49
2023-05-05T06:55:03.886Z,17.01
2023-05-05T06:57:31.788Z,17.46
2023-05-05T06:59:59.771Z,18.36
2023-05-05T07:02:27.842Z,18.70
2023-05-05T07:04:56.407Z,18.65
2023-05-05T07:07:26.975Z,19.12
2023-05-05T07:09:54.892Z,18.66
2023-05-05T07:12:22.891Z,17.72
2023-05-05T07:14:50.840Z,16.98
2023-05-05T07:17:18.784Z,16.73
2023-05-05T07:19:50.831Z,16.03
2023-05-05T07:22:18.767Z,16.24
2023-05-05T07:24:49.756Z,16.07
2023-05-05T07:27:18.321Z,16.00
2023-05-05T07:29:46.357Z,15.82
2023-05-05T07:32:14.804Z,15.81
2023-05-05T07:34:42.650Z,15.57
2023-05-05T07:37:10.702Z,15.49
2023-05-05T07:39:38.716Z,15.44
2023-05-05T07:42:08.307Z,15.31
2023-05-05T07:44:36.244Z,15.49
2023-05-05T07:47:04.726Z,15.54
2023-05-05T07:49:32.881Z,15.54
2023-05-05T07:52:00.791Z,15.51
2023-05-05T07:54:29.103Z,15.36
2023-05-05T07:56:57.362Z,15.51
2023-05-05T07:59:26.652Z,15.36
2023-05-05T08:01:55.077Z,15.59
2023-05-05T08:04:23.002Z,15.54
2023-05-05T08:06:50.959Z,15.50
2023-05-05T08:09:19.154Z,15.54
2023-05-05T08:11:47.135Z,15.53
2023-05-05T08:14:15.295Z,15.52
2023-05-05T08:16:44.626Z,15.68
2023-05-05T08:19:25.245Z,15.98
2023-05-05T08:21:56.462Z,16.78
2023-05-05T08:24:24.361Z,18.20
2023-05-05T08:26:52.171Z,19.52
2023-05-05T08:29:20.285Z,20.21
2023-05-05T08:31:49.737Z,20.61
2023-05-05T08:34:17.636Z,20.36
2023-05-05T08:36:45.601Z,19.68
2023-05-05T08:39:13.450Z,19.23
2023-05-05T08:41:41.611Z,18.58
2023-05-05T08:44:10.125Z,19.26
2023-05-05T08:46:39.488Z,20.55
2023-05-05T08:49:11.547Z,21.36
2023-05-05T08:51:44.343Z,20.96
2023-05-05T08:54:19.097Z,20.12
2023-05-05T08:56:50.967Z,19.76
2023-05-05T08:59:20.296Z,20.36
2023-05-05T09:01:49.154Z,20.33
2023-05-05T09:04:19.278Z,20.73
2023-05-05T09:06:47.437Z,20.65
2023-05-05T09:09:15.876Z,20.42
2023-05-05T09:11:46.121Z,20.09
2023-05-05T09:14:14.405Z,19.90
2023-05-05T09:16:44.499Z,20.09
2023-05-05T09:19:12.403Z,20.40
2023-05-05T09:21:49.837Z,20.31
2023-05-05T09:24:18.675Z,20.83
2023-05-05T09:26:48.279Z,20.82
2023-05-05T09:29:19.905Z,20.13
2023-05-05T09:32:05.449Z,19.62
2023-05-05T09:34:38.343Z,20.00
2023-05-05T09:37:07.711Z,19.66
2023-05-05T09:39:35.581Z,19.56
2023-05-05T09:42:03.885Z,19.30
2023-05-05T09:44:36.036Z,19.03
2023-05-05T09:47:09.401Z,18.57
2023-05-05T09:49:43.096Z,18.20
2023-05-05T09:52:16.192Z,18.17
2023-05-05T09:54:45.377Z,17.97
2023-05-05T09:57:28.015Z,17.90
2023-05-05T10:00:00.582Z,17.97
2023-05-05T10:02:33.961Z,17.94
2023-05-05T10:05:10.134Z,17.88
2023-05-05T10:07:41.761Z,17.81
2023-05-05T10:10:12.084Z,17.82
2023-05-05T10:12:41.198Z,17.88
2023-05-05T10:15:11.016Z,18.13
2023-05-05T10:18:02.471Z,18.73
2023-05-05T10:20:34.573Z,18.64
2023-05-05T10:23:09.273Z,18.89
2023-05-05T10:25:42.870Z,18.94
2023-05-05T10:28:17.911Z,19.01
2023-05-05T10:30:50.380Z,19.23
2023-05-05T10:35:55.575Z,19.49
2023-05-05T10:38:27.635Z,19.72
2023-05-05T10:40:57.364Z,19.93
2023-05-05T10:43:26.126Z,19.74
2023-05-05T10:45:55.259Z,19.93
2023-05-05T10:48:30.005Z,20.03
2023-05-05T10:51:03.238Z,20.01
2023-05-05T10:53:37.793Z,19.67
2023-05-05T10:56:12.371Z,20.05
2023-05-05T10:58:58.480Z,20.03
2023-05-05T11:01:32.698Z,19.92
2023-05-05T11:04:19.969Z,19.82
2023-05-05T11:07:27.155Z,19.74
2023-05-05T11:10:01.612Z,19.78
2023-05-05T11:12:31.740Z,19.81
2023-05-05T11:15:37.485Z,19.70
2023-05-05T11:18:08.402Z,19.70
2023-05-05T11:21:18.197Z,19.77
2023-05-05T11:23:50.904Z,19.66
2023-05-05T11:26:50.250Z,19.75
2023-05-05T11:29:18.300Z,19.61
2023-05-05T11:31:47.838Z,19.75
2023-05-05T11:34:29.674Z,19.58
2023-05-05T11:37:04.171Z,19.43
2023-05-05T11:39:43.819Z,19.20
2023-05-05T11:42:28.707Z,19.40
2023-05-05T11:44:57.183Z,19.41
2023-05-05T11:47:32.520Z,19.38
2023-05-05T11:50:17.511Z,19.52
2023-05-05T11:52:45.862Z,19.56
2023-05-05T11:55:14.057Z,19.54
2023-05-05T11:57:43.660Z,19.40
2023-05-05T12:00:12.667Z,19.20
2023-05-05T12:02:40.719Z,19.17
2023-05-05T12:05:09.892Z,19.28
2023-05-05T12:07:37.863Z,19.66
2023-05-05T12:10:06.586Z,19.24
2023-05-05T12:12:37.031Z,19.37
2023-05-05T12:15:10.170Z,19.28
2023-05-05T12:17:43.900Z,19.39
2023-05-05T12:20:13.685Z,19.53
2023-05-05T12:22:42.037Z,19.52
2023-05-05T12:25:13.636Z,19.36
2023-05-05T12:27:42.626Z,19.37
2023-05-05T12:30:18.258Z,19.54
2023-05-05T12:32:47.246Z,19.52
2023-05-05T12:35:16.047Z,19.15
2023-05-05T12:37:44.962Z,19.16
2023-05-05T12:40:45.159Z,19.33
2023-05-05T12:43:28.716Z,19.49
2023-05-05T12:46:05.996Z,19.32
2023-05-05T12:48:34.508Z,19.32
2023-05-05T12:51:20.007Z,19.20
2023-05-05T12:53:49.134Z,19.10
2023-05-05T12:56:38.442Z,19.17
2023-05-05T12:59:09.293Z,18.95
2023-05-05T13:01:50.628Z,18.64
2023-05-05T13:04:19.547Z,18.53
2023-05-05T13:06:48.704Z,18.50
2023-05-05T13:09:27.784Z,18.53
2023-05-05T13:11:59.524Z,18.36
2023-05-05T13:14:27.876Z,17.98
2023-05-05T13:16:58.049Z,18.02
2023-05-05T13:19:28.045Z,17.90
2023-05-05T13:21:58.154Z,17.64
2023-05-05T13:24:42.210Z,17.43
2023-05-05T13:27:15.828Z,17.16
2023-05-05T13:29:43.957Z,17.06
2023-05-05T13:32:16.675Z,17.08
2023-05-05T13:34:44.650Z,16.94
2023-05-05T13:37:12.594Z,17.00
2023-05-05T13:39:40.784Z,16.81
2023-05-05T13:42:08.860Z,16.99
2023-05-05T13:44:37.631Z,16.87
2023-05-05T13:47:06.648Z,16.99
2023-05-05T13:49:39.512Z,16.94
2023-05-05T13:52:10.822Z,16.87
2023-05-05T13:54:38.742Z,16.90
2023-05-05T13:57:08.061Z,17.01
2023-05-05T13:59:36.148Z,17.17
2023-05-05T14:02:04.236Z,17.09
2023-05-05T14:04:32.472Z,17.11
2023-05-05T14:07:02.183Z,17.25
2023-05-05T14:09:30.495Z,17.29
2023-05-05T14:12:02.490Z,17.34
2023-05-05T14:14:30.760Z,17.63
2023-05-05T14:16:59.102Z,17.79
2023-05-05T14:19:27.720Z,17.66
2023-05-05T14:21:55.690Z,17.68
2023-05-05T14:24:25.407Z,17.56
2023-05-05T14:26:53.775Z,17.33
2023-05-05T14:29:21.791Z,17.58
2023-05-05T14:31:52.094Z,17.40
2023-05-05T14:34:21.065Z,17.49
2023-05-05T14:36:49.761Z,17.46
2023-05-05T14:39:19.670Z,17.45
2023-05-05T14:41:49.268Z,17.61
2023-05-05T14:44:17.220Z,17.59
2023-05-05T14:46:46.338Z,17.72
2023-05-05T14:49:15.052Z,17.96
2023-05-05T14:51:43.130Z,18.02
2023-05-05T14:54:24.201Z,18.20
2023-05-05T14:56:58.464Z,18.11
2023-05-05T14:59:27.598Z,17.85
2023-05-05T15:01:56.180Z,17.91
2023-05-05T15:04:24.221Z,17.70
2023-05-05T15:06:52.766Z,17.67
2023-05-05T15:09:20.709Z,17.71
2023-05-05T15:11:48.884Z,17.53
2023-05-05T15:14:18.385Z,17.59
2023-05-05T15:16:46.824Z,17.68
2023-05-05T15:19:15.045Z,17.47
2023-05-05T15:21:44.813Z,17.34
2023-05-05T15:24:15.231Z,17.42
2023-05-05T15:26:43.301Z,17.28
2023-05-05T15:29:11.305Z,17.24
2023-05-05T15:31:43.958Z,17.19
2023-05-05T15:34:12.276Z,17.52
2023-05-05T15:36:40.157Z,17.69
2023-05-05T15:39:14.169Z,17.71
2023-05-05T15:41:42.065Z,17.90
2023-05-05T15:44:13.115Z,17.97
2023-05-05T15:46:42.720Z,17.82
2023-05-05T15:49:10.758Z,17.64
2023-05-05T15:51:40.291Z,17.44
2023-05-05T15:54:08.263Z,17.49
2023-05-05T15:56:40.340Z,17.62
2023-05-05T15:59:08.731Z,17.51
2023-05-05T16:01:36.961Z,17.43
2023-05-05T16:04:06.663Z,17.49
2023-05-05T16:06:36.064Z,17.22
2023-05-05T16:09:04.937Z,17.24
2023-05-05T16:11:32.928Z,17.30
2023-05-05T16:14:01.476Z,17.21
2023-05-05T16:16:29.415Z,17.15
2023-05-05T16:18:57.500Z,17.20
2023-05-05T16:21:27.613Z,17.01
2023-05-05T16:23:55.780Z,16.95
2023-05-05T16:26:23.663Z,16.73
2023-05-05T16:28:52.367Z,16.74
2023-05-05T16:31:20.703Z,16.62
2023-05-05T16:33:48.703Z,16.55
2023-05-05T16:36:20.853Z,16.59
2023-05-05T16:38:51.127Z,16.49
2023-05-05T16:41:19.270Z,16.39
2023-05-05T16:43:50.617Z,16.31
2023-05-05T16:46:18.918Z,16.16
2023-05-05T16:48:47.050Z,16.11
2023-05-05T16:51:15.304Z,16.22
2023-05-05T16:53:46.619Z,16.30
2023-05-05T16:56:17.410Z,16.07
2023-05-05T16:58:45.337Z,16.08
2023-05-05T17:01:13.491Z,15.94
2023-05-05T17:03:41.939Z,15.97
2023-05-05T17:06:09.854Z,15.99
2023-05-05T17:08:37.765Z,15.76
2023-05-05T17:11:06.243Z,15.46
2023-05-05T17:13:38.593Z,15.57
2023-05-05T17:16:07.212Z,15.46
2023-05-05T17:18:37.745Z,15.31
2023-05-05T17:21:06.323Z,15.37
2023-05-05T17:23:34.525Z,15.31
2023-05-05T17:26:05.648Z,15.21
2023-05-05T17:28:35.256Z,15.19
2023-05-05T17:31:08.904Z,15.01
2023-05-05T17:33:37.194Z,15.00
2023-05-05T17:36:09.954Z,15.11
2023-05-05T17:38:37.949Z,14.94
2023-05-05T17:41:06.423Z,14.69
2023-05-05T17:43:36.104Z,14.84
2023-05-05T17:46:04.073Z,14.77
2023-05-05T17:48:32.172Z,14.86
2023-05-05T17:51:00.208Z,14.77
2023-05-05T17:53:28.818Z,14.89
2023-05-05T17:55:56.737Z,14.84
2023-05-05T17:58:24.984Z,14.95
2023-05-05T18:00:54.733Z,14.90
2023-05-05T18:03:22.833Z,14.99
2023-05-05T18:05:51.061Z,15.05
2023-05-05T18:08:20.027Z,15.04
2023-05-05T18:10:48.153Z,15.06
2023-05-05T18:13:16.334Z,14.96
2023-05-05T18:15:44.442Z,14.97
2023-05-05T18:18:16.324Z,14.95
2023-05-05T18:20:44.804Z,14.68
2023-05-05T18:23:13.737Z,14.50
2023-05-05T18:25:42.301Z,14.57
2023-05-05T18:28:12.423Z,14.62
2023-05-05T18:30:41.018Z,14.32
2023-05-05T18:33:10.930Z,14.07
2023-05-05T18:35:40.577Z,14.05
2023-05-05T18:38:09.258Z,14.04
2023-05-05T18:40:39.806Z,13.95
2023-05-05T18:43:07.947Z,13.79
2023-05-05T18:45:42.424Z,13.91
2023-05-05T18:48:12.118Z,13.83
2023-05-05T18:50:44.854Z,13.73
2023-05-05T18:53:14.922Z,13.69
2023-05-05T18:55:47.239Z,13.63
2023-05-05T18:58:16.912Z,13.57
2023-05-05T19:00:44.802Z,13.51
2023-05-05T19:03:12.800Z,13.52
2023-05-05T19:05:49.890Z,13.60
2023-05-05T19:08:17.809Z,13.61
2023-05-05T19:10:46.316Z,13.65
2023-05-05T19:13:14.447Z,13.53
2023-05-05T19:15:42.848Z,13.38
2023-05-05T19:18:12.148Z,13.21
2023-05-05T19:20:43.833Z,13.13
2023-05-05T19:23:13.930Z,13.07
2023-05-05T19:25:42.161Z,12.97
2023-05-05T19:28:13.876Z,12.89
2023-05-05T19:30:41.823Z,12.97
2023-05-05T19:33:10.462Z,12.97
2023-05-05T19:35:38.597Z,12.92
2023-05-05T19:38:12.959Z,12.82
2023-05-05T19:40:42.310Z,12.76
2023-05-05T19:43:11.489Z,12.77
2023-05-05T19:45:39.591Z,12.87
2023-05-05T19:48:10.418Z,12.67
2023-05-05T19:50:38.351Z,12.73
2023-05-05T19:53:07.683Z,12.58
2023-05-05T19:55:35.868Z,12.60
2023-05-05T19:58:07.028Z,12.63
2023-05-05T20:00:34.942Z,12.51
2023-05-05T20:03:03.296Z,12.46
2023-05-05T20:05:31.548Z,12.47
2023-05-05T20:07:59.483Z,12.37
2023-05-05T20:10:29.002Z,12.29
2023-05-05T20:12:57.293Z,12.20
2023-05-05T20:15:25.492Z,12.13
2023-05-05T20:17:53.929Z,12.23
2023-05-05T20:20:23.926Z,12.20
2023-05-05T20:22:52.192Z,12.17
2023-05-05T20:25:20.224Z,12.09
2023-05-05T20:27:49.608Z,11.97
2023-05-05T20:30:17.591Z,11.99
2023-05-05T20:32:45.762Z,11.90
2023-05-05T20:35:13.865Z,11.80
2023-05-05T20:37:41.846Z,11.83
2023-05-05T20:40:12.186Z,11.88
2023-05-05T20:42:40.594Z,11.77
2023-05-05T20:45:15.097Z,11.60
2023-05-05T20:47:42.924Z,11.55
2023-05-05T20:50:12.504Z,11.54
2023-05-05T20:52:40.728Z,11.39
2023-05-05T20:55:13.387Z,11.30
2023-05-05T20:57:41.341Z,11.36
2023-05-05T21:00:12.598Z,11.21
2023-05-05T21:02:40.706Z,11.24
2023-05-05T21:05:10.363Z,11.14
2023-05-05T21:07:38.619Z,11.03
2023-05-05T21:10:11.150Z,11.12
2023-05-05T21:12:39.464Z,11.17
2023-05-05T21:15:10.862Z,11.10
2023-05-05T21:17:40.509Z,11.03
2023-05-05T21:20:10.564Z,11.00
2023-05-05T21:22:38.715Z,11.01
2023-05-05T21:25:14.120Z,11.03
2023-05-05T21:27:42.143Z,10.91
2023-05-05T21:30:14.321Z,10.88
2023-05-05T21:32:44.293Z,10.99
2023-05-05T21:35:12.321Z,10.83
2023-05-05T21:37:40.661Z,10.84
2023-05-05T21:40:13.539Z,10.76
2023-05-05T21:42:42.831Z,10.80
2023-05-05T21:45:12.303Z,10.63
2023-05-05T21:47:40.452Z,10.55
2023-05-05T21:50:12.353Z,10.62
2023-05-05T21:52:41.071Z,10.69
2023-05-05T21:55:11.020Z,10.69
2023-05-05T21:57:39.113Z,10.67
2023-05-05T22:00:09.088Z,10.64
2023-05-05T22:02:37.185Z,10.59
2023-05-05T22:05:06.223Z,10.64
2023-05-05T22:07:35.586Z,10.61
2023-05-05T22:10:03.822Z,10.64
2023-05-05T22:12:31.974Z,10.68
2023-05-05T22:14:59.911Z,10.62
2023-05-05T22:17:27.964Z,10.58
2023-05-05T22:19:56.196Z,10.60
2023-05-05T22:22:24.254Z,10.49
2023-05-05T22:24:53.790Z,10.54
2023-05-05T22:27:22.056Z,10.59
2023-05-05T22:29:50.110Z,10.59
2023-05-05T22:32:18.294Z,10.60
2023-05-05T22:34:46.259Z,10.65
2023-05-05T22:37:17.631Z,10.71
2023-05-05T22:39:45.514Z,10.72
2023-05-05T22:42:16.438Z,10.78
2023-05-05T22:44:44.347Z,10.78
2023-05-05T22:47:13.200Z,10.84
2023-05-05T22:49:41.649Z,10.68
2023-05-05T22:52:09.593Z,10.66
2023-05-05T22:54:37.932Z,10.59
2023-05-05T22:57:05.999Z,10.53
2023-05-05T22:59:35.405Z,10.59
2023-05-05T23:02:04.200Z,10.43
2023-05-05T23:04:32.337Z,10.46
2023-05-05T23:07:00.324Z,10.44
2023-05-05T23:09:28.334Z,10.50
2023-05-05T23:11:56.902Z,10.60
2023-05-05T23:14:24.838Z,10.43
2023-05-05T23:16:54.230Z,10.51
2023-05-05T23:19:22.182Z,10.61
2023-05-05T23:21:53.515Z,10.63
2023-05-05T23:24:21.690Z,10.70
2023-05-05T23:26:49.679Z,10.70
2023-05-05T23:29:17.560Z,10.71
2023-05-05T23:31:46.189Z,10.67
2023-05-05T23:34:16.309Z,10.69
2023-05-05T23:36:44.485Z,10.73
2023-05-05T23:39:12.466Z,10.81
2023-05-05T23:41:40.483Z,10.79
2023-05-05T23:44:08.375Z,10.75
2023-05-05T23:46:36.349Z,10.65
2023-05-05T23:49:04.734Z,10.81
2023-05-05T23:51:33.957Z,10.87
2023-05-05T23:54:01.948Z,10.64
2023-05-05T23:56:30.301Z,10.76
2023-05-05T23:58:58.189Z,10.82
